Time;durP1;ratioP1;P1;durP2;ratioP2;P2;SDS_P1;SDS_P2;PMS_P1;PMS_P2;Temp;Humidity;BMP_temperature;BMP_pressure;BME280_temperature;BME280_humidity;BME280_pressure;Samples;Min_cycle;Max_cycle;Signal;HPM_P1;HPM_P2
2023/04/15 15:45:39;;;;;;;6.15;1.70;;;11.00;99.90;;;;;;5110201;27;20113;-63
2023/04/15 15:48:05;;;;;;;4.22;2.00;;;10.80;99.90;;;;;;5121920;28;20031;-64
2023/04/15 15:50:31;;;;;;;1.95;1.60;;;10.70;99.90;;;;;;5129949;28;20011;-62
2023/04/15 15:52:57;;;;;;;2.45;1.40;;;10.70;99.90;;;;;;5128645;27;20039;-64
2023/04/15 15:55:24;;;;;;;3.72;1.30;;;10.80;99.90;;;;;;5128458;28;20038;-64
2023/04/15 15:57:50;;;;;;;5.32;1.77;;;10.80;99.90;;;;;;5130045;27;20547;-64
2023/04/15 16:00:16;;;;;;;2.78;1.70;;;10.70;99.90;;;;;;5130395;28;20094;-63
2023/04/15 16:02:42;;;;;;;5.13;2.38;;;10.70;99.90;;;;;;5127133;28;20387;-62
2023/04/15 16:05:08;;;;;;;4.75;1.30;;;10.70;99.90;;;;;;5120958;28;20042;-63
2023/04/15 16:07:34;;;;;;;5.80;1.52;;;10.60;99.90;;;;;;5109227;28;20073;-63
2023/04/15 16:10:00;;;;;;;6.30;1.75;;;10.60;99.90;;;;;;5108847;28;20024;-64
2023/04/15 16:12:26;;;;;;;2.72;1.17;;;10.50;99.90;;;;;;5109598;28;20030;-63
2023/04/15 16:14:52;;;;;;;4.80;1.40;;;10.50;99.90;;;;;;5109228;28;20077;-63
2023/04/15 16:17:17;;;;;;;5.32;1.75;;;10.40;99.90;;;;;;5115543;27;20425;-65
2023/04/15 16:19:43;;;;;;;3.55;1.25;;;10.40;99.90;;;;;;5114131;28;20028;-64
2023/04/15 16:22:08;;;;;;;4.47;1.27;;;10.40;99.90;;;;;;5109186;28;20027;-62
2023/04/15 16:24:34;;;;;;;4.78;1.48;;;10.40;99.90;;;;;;5108090;28;20043;-63
2023/04/15 16:27:00;;;;;;;4.35;1.33;;;10.30;99.90;;;;;;5107999;28;20141;-62
2023/04/15 16:29:27;;;;;;;4.28;1.65;;;10.30;99.90;;;;;;5107674;28;20020;-62
2023/04/15 16:31:54;;;;;;;6.43;1.77;;;10.30;99.90;;;;;;5108132;28;20034;-63
2023/04/15 16:34:20;;;;;;;6.70;1.30;;;10.30;99.90;;;;;;5108756;28;20028;-63
2023/04/15 16:36:45;;;;;;;7.40;2.03;;;10.30;99.90;;;;;;5108704;28;20028;-63
2023/04/15 16:39:11;;;;;;;3.97;2.00;;;10.30;99.90;;;;;;5108446;28;20081;-63
2023/04/15 16:41:37;;;;;;;7.88;2.53;;;10.20;99.90;;;;;;5124215;28;20072;-63
2023/04/15 16:44:03;;;;;;;4.47;2.10;;;10.20;99.90;;;;;;5128503;28;20372;-63
2023/04/15 16:46:30;;;;;;;7.47;2.70;;;10.10;99.90;;;;;;5128985;27;20535;-63
2023/04/15 16:48:55;;;;;;;5.22;2.10;;;10.00;99.90;;;;;;5129465;27;20007;-63
2023/04/15 16:51:21;;;;;;;7.72;1.92;;;10.00;99.90;;;;;;5126768;28;20360;-63
2023/04/15 16:53:47;;;;;;;10.75;5.78;;;9.90;99.90;;;;;;5128713;27;20016;-63
2023/04/15 16:56:13;;;;;;;8.02;3.75;;;9.90;99.90;;;;;;5118511;28;20007;-62
2023/04/15 16:58:39;;;;;;;7.75;2.80;;;9.90;99.90;;;;;;5114506;28;20040;-63
2023/04/15 17:01:04;;;;;;;6.05;1.85;;;9.80;99.90;;;;;;5103098;28;20134;-63
2023/04/15 17:03:30;;;;;;;5.45;2.28;;;9.70;99.90;;;;;;5094457;28;20051;-63
2023/04/15 17:05:56;;;;;;;5.50;2.50;;;9.70;99.90;;;;;;5093305;28;20073;-64
2023/04/15 17:08:21;;;;;;;6.10;1.88;;;9.60;99.90;;;;;;5094851;28;20008;-62
2023/04/15 17:10:47;;;;;;;9.63;2.90;;;9.60;99.90;;;;;;5094452;28;20113;-63
2023/04/15 17:13:13;;;;;;;7.85;2.80;;;9.50;99.90;;;;;;5094313;28;20413;-63
2023/04/15 17:15:39;;;;;;;7.03;2.42;;;9.50;99.90;;;;;;5108771;28;20032;-62
2023/04/15 17:18:05;;;;;;;9.75;2.90;;;9.50;99.90;;;;;;5112771;28;20049;-62
2023/04/15 17:20:30;;;;;;;8.10;2.60;;;9.50;99.90;;;;;;5093559;28;20472;-62
2023/04/15 17:22:56;;;;;;;5.28;1.98;;;9.50;99.90;;;;;;5094328;28;20069;-63
2023/04/15 17:25:22;;;;;;;5.90;1.92;;;9.50;99.90;;;;;;5094365;28;20135;-64
2023/04/15 17:27:47;;;;;;;5.68;1.83;;;9.50;99.90;;;;;;5092084;28;20028;-63
2023/04/15 17:30:13;;;;;;;5.63;1.90;;;9.40;99.90;;;;;;5094728;28;20020;-63
2023/04/15 17:32:39;;;;;;;3.60;1.70;;;9.40;99.90;;;;;;5094534;28;20024;-63
2023/04/15 17:35:05;;;;;;;10.43;2.75;;;9.40;99.90;;;;;;5093655;28;20054;-63
2023/04/15 17:37:34;;;;;;;3.90;2.00;;;9.40;99.90;;;;;;5094138;28;20036;-64
2023/04/15 17:39:59;;;;;;;4.93;1.52;;;9.40;99.90;;;;;;5098226;28;20032;-62
2023/04/15 17:42:25;;;;;;;6.68;2.15;;;9.30;99.90;;;;;;5095894;28;20031;-62
2023/04/15 17:44:50;;;;;;;5.80;2.08;;;9.30;99.90;;;;;;5093456;28;20040;-61
2023/04/15 17:47:16;;;;;;;9.55;1.80;;;9.30;99.90;;;;;;5093455;28;20502;-61
2023/04/15 17:49:42;;;;;;;8.05;1.70;;;9.30;99.90;;;;;;5092255;28;20028;-61
2023/04/15 17:52:08;;;;;;;6.03;1.80;;;9.20;99.90;;;;;;5092458;28;20035;-62
2023/04/15 17:54:34;;;;;;;2.83;1.50;;;9.20;99.90;;;;;;5092816;28;20024;-61
2023/04/15 17:57:01;;;;;;;4.45;1.90;;;9.20;99.90;;;;;;5093556;28;20023;-60
2023/04/15 17:59:28;;;;;;;10.95;2.13;;;9.10;99.90;;;;;;5093628;28;20047;-60
2023/04/15 18:01:53;;;;;;;13.10;2.42;;;9.10;99.90;;;;;;5096822;28;20020;-61
2023/04/15 18:04:19;;;;;;;3.92;1.73;;;9.10;99.90;;;;;;5113654;28;20035;-60
2023/04/15 18:06:44;;;;;;;4.30;2.10;;;9.10;99.90;;;;;;5098730;28;20485;-62
2023/04/15 18:09:10;;;;;;;6.13;3.00;;;9.10;99.90;;;;;;5092029;28;20035;-62
2023/04/15 18:11:37;;;;;;;8.00;3.65;;;9.10;99.90;;;;;;5091722;28;20065;-63
2023/04/15 18:14:03;;;;;;;5.22;2.30;;;9.00;99.90;;;;;;5096783;28;20379;-61
2023/04/15 18:16:29;;;;;;;6.32;2.33;;;9.00;99.90;;;;;;5112653;28;20026;-61
2023/04/15 18:18:54;;;;;;;2.55;1.85;;;9.00;99.90;;;;;;5113421;28;20082;-61
2023/04/15 18:21:20;;;;;;;4.05;2.03;;;9.00;99.90;;;;;;5113383;28;20027;-61
2023/04/15 18:23:46;;;;;;;7.45;1.45;;;9.00;99.90;;;;;;5112296;28;20425;-61
2023/04/15 18:26:12;;;;;;;4.07;1.80;;;8.90;99.90;;;;;;5111824;28;20073;-60
2023/04/15 18:28:38;;;;;;;5.18;1.80;;;9.00;99.90;;;;;;5103441;28;20047;-63
2023/04/15 18:31:04;;;;;;;5.35;1.50;;;8.90;99.90;;;;;;5092559;28;20020;-61
2023/04/15 18:33:30;;;;;;;8.57;1.75;;;8.90;99.90;;;;;;5092469;28;20495;-61
2023/04/15 18:35:56;;;;;;;6.03;1.90;;;8.90;99.90;;;;;;5092791;28;20024;-60
2023/04/15 18:38:22;;;;;;;4.20;1.60;;;8.90;99.90;;;;;;5092187;28;20426;-60
2023/04/15 18:40:48;;;;;;;2.50;1.50;;;8.90;99.90;;;;;;5091216;28;20028;-61
2023/04/15 18:43:14;;;;;;;6.60;2.00;;;8.90;99.90;;;;;;5097811;28;20129;-62
2023/04/15 18:45:39;;;;;;;4.43;1.63;;;8.90;99.90;;;;;;5110774;28;20060;-63
2023/04/15 18:48:05;;;;;;;7.07;1.80;;;8.80;99.90;;;;;;5112057;28;20019;-62
2023/04/15 18:50:31;;;;;;;4.63;1.92;;;8.80;99.90;;;;;;5110338;28;20476;-63
2023/04/15 18:52:56;;;;;;;5.60;1.88;;;8.80;99.90;;;;;;5112738;28;21092;-60
2023/04/15 18:55:22;;;;;;;5.20;2.03;;;8.80;99.90;;;;;;5112792;28;20028;-61
2023/04/15 18:57:48;;;;;;;5.00;1.77;;;8.80;99.90;;;;;;5109761;28;20580;-61
2023/04/15 19:00:14;;;;;;;4.18;1.83;;;8.80;99.90;;;;;;5111253;28;20030;-61
2023/04/15 19:02:41;;;;;;;8.93;2.42;;;8.80;99.90;;;;;;5112656;28;20064;-61
2023/04/15 19:05:07;;;;;;;4.70;2.03;;;8.80;99.90;;;;;;5110070;28;20070;-61
2023/04/15 19:07:33;;;;;;;6.07;2.00;;;8.80;99.90;;;;;;5112197;28;20026;-60
2023/04/15 19:09:59;;;;;;;5.60;2.15;;;8.80;99.90;;;;;;5110981;28;20032;-61
2023/04/15 19:12:24;;;;;;;3.17;1.95;;;8.70;99.90;;;;;;5107948;28;20023;-62
2023/04/15 19:14:50;;;;;;;7.72;2.28;;;8.60;99.90;;;;;;5091575;28;20032;-61
2023/04/15 19:17:16;;;;;;;12.55;2.58;;;8.60;99.90;;;;;;5092148;28;20099;-60
2023/04/15 19:19:42;;;;;;;4.03;1.85;;;8.50;99.90;;;;;;5090638;28;20442;-60
2023/04/15 19:22:08;;;;;;;7.22;2.40;;;8.50;99.90;;;;;;5091668;28;20024;-60
2023/04/15 19:24:34;;;;;;;8.48;2.55;;;8.50;99.90;;;;;;5090272;28;20020;-60
2023/04/15 19:27:00;;;;;;;8.32;2.90;;;8.50;99.90;;;;;;5095815;28;20080;-61
2023/04/15 19:29:27;;;;;;;9.57;2.35;;;8.50;99.90;;;;;;5112068;28;20110;-61
2023/04/15 19:31:53;;;;;;;7.93;2.55;;;8.40;99.90;;;;;;5095038;28;20032;-63
2023/04/15 19:34:19;;;;;;;6.82;2.40;;;8.40;99.90;;;;;;5091321;28;20066;-60
2023/04/15 19:36:45;;;;;;;4.45;2.15;;;8.40;99.90;;;;;;5091456;28;20461;-61
2023/04/15 19:39:10;;;;;;;9.23;2.40;;;8.40;99.90;;;;;;5092872;28;20027;-61
2023/04/15 19:41:37;;;;;;;6.80;2.70;;;8.40;99.90;;;;;;5108355;28;20045;-61
2023/04/15 19:44:03;;;;;;;6.25;2.47;;;8.40;99.90;;;;;;5105903;28;20040;-61
2023/04/15 19:46:30;;;;;;;6.35;2.50;;;8.40;99.90;;;;;;5091594;28;20050;-61
2023/04/15 19:48:56;;;;;;;8.13;2.30;;;8.40;99.90;;;;;;5096902;28;20104;-61
2023/04/15 19:51:21;;;;;;;7.93;2.42;;;8.40;99.90;;;;;;5110943;28;20073;-61
2023/04/15 19:53:48;;;;;;;6.57;2.72;;;8.40;99.90;;;;;;5109840;28;20016;-61
2023/04/15 19:56:15;;;;;;;5.25;2.30;;;8.40;99.90;;;;;;5112228;28;20024;-62
2023/04/15 19:58:40;;;;;;;6.90;2.40;;;8.40;99.90;;;;;;5110218;28;20045;-61
2023/04/15 20:01:06;;;;;;;5.15;2.55;;;8.40;99.90;;;;;;5111438;28;20022;-62
2023/04/15 20:03:31;;;;;;;6.15;2.53;;;8.30;99.90;;;;;;5109155;28;20095;-62
2023/04/15 20:05:57;;;;;;;5.32;2.20;;;8.40;99.90;;;;;;5110639;28;20468;-61
2023/04/15 20:08:23;;;;;;;6.40;2.72;;;8.30;99.90;;;;;;5094909;28;20032;-61
2023/04/15 20:10:48;;;;;;;7.40;2.60;;;8.30;99.90;;;;;;5091262;28;20040;-62
2023/04/15 20:13:14;;;;;;;9.07;2.42;;;8.30;99.90;;;;;;5091609;28;20024;-62
2023/04/15 20:15:39;;;;;;;4.55;2.33;;;8.30;99.90;;;;;;5090740;28;20486;-61
2023/04/15 20:18:05;;;;;;;6.35;2.28;;;8.30;99.90;;;;;;5091432;28;20380;-60
2023/04/15 20:20:33;;;;;;;8.63;2.40;;;8.30;99.90;;;;;;5092068;28;20024;-63
